Terminal Aerodrome Forecast
Issued by NWS Kansas City/Pleasant Hill, MO

Home | Current Version | Previous Version | Text Only | Print | Product List | Glossary On
Versions: 1 2 3 4 5 6 7 8 9 10 11 12 13 14 15 16 17
559
FTUS43 KEAX 292344
TAFMCI
TAF
KMCI 292344Z 3000/3024 18004KT P6SM FEW070 BKN220
     FM301300 17011KT P6SM BKN060
     FM302200 18010KT P6SM VCTS BKN050CB=

USA.gov is the U.S. government's official web portal to all federal, state and local government web resources and services.